Time;durP1;ratioP1;P1;durP2;ratioP2;P2;SDS_P1;SDS_P2;PMS_P1;PMS_P2;Temp;Humidity;BMP_temperature;BMP_pressure;BME280_temperature;BME280_humidity;BME280_pressure;Samples;Min_cycle;Max_cycle;Signal;HPM_P1;HPM_P2
2021/08/25 00:01:57;;;;;;;;;;;;;;;20.92;63.92;102436.97;5117822;28;939;-51
2021/08/25 00:04:22;;;;;;;;;;;;;;;20.91;63.72;102445.22;5117141;28;1239;-51
2021/08/25 00:06:47;;;;;;;;;;;;;;;20.91;63.47;102442.50;5117790;28;1665;-49
2021/08/25 00:09:13;;;;;;;;;;;;;;;20.91;63.33;102445.22;5126495;27;1785;-50
2021/08/25 00:11:38;;;;;;;;;;;;;;;20.89;63.51;102445.34;5137880;27;1059;-51
2021/08/25 00:14:03;;;;;;;;;;;;;;;20.89;63.86;102442.63;5137847;27;1004;-51
2021/08/25 00:16:28;;;;;;;;;;;;;;;20.88;63.45;102448.16;5138293;27;1605;-49
2021/08/25 00:18:53;;;;;;;;;;;;;;;20.88;63.39;102443.63;5137630;27;1897;-53
2021/08/25 00:21:18;;;;;;;;;;;;;;;20.87;63.28;102438.31;5137791;27;844;-49
2021/08/25 00:23:43;;;;;;;;;;;;;;;20.85;63.29;102435.72;5137029;27;1742;-50
2021/08/25 00:26:08;;;;;;;;;;;;;;;20.86;63.28;102429.31;5137372;27;1004;-49
2021/08/25 00:28:34;;;;;;;;;;;;;;;20.85;63.23;102429.44;5137342;27;842;-51
2021/08/25 00:31:00;;;;;;;;;;;;;;;20.85;63.34;102422.19;5137865;27;798;-50
2021/08/25 00:33:25;;;;;;;;;;;;;;;20.84;63.09;102419.59;5137113;27;929;-49
2021/08/25 00:35:50;;;;;;;;;;;;;;;20.83;63.03;102429.56;5137347;27;921;-54
2021/08/25 00:38:15;;;;;;;;;;;;;;;20.82;63.24;102421.56;5123686;27;1917;-54
2021/08/25 00:40:40;;;;;;;;;;;;;;;20.80;63.37;102419.84;5116386;28;1025;-53
2021/08/25 00:43:05;;;;;;;;;;;;;;;20.81;63.13;102412.59;5116812;28;900;-52
2021/08/25 00:45:30;;;;;;;;;;;;;;;20.79;62.98;102407.28;5098089;28;1777;-52
2021/08/25 00:47:55;;;;;;;;;;;;;;;20.78;63.58;102410.16;5116622;28;1000;-53
2021/08/25 00:50:20;;;;;;;;;;;;;;;20.78;63.08;102404.75;5116651;28;1071;-54
2021/08/25 00:52:45;;;;;;;;;;;;;;;20.76;62.71;102409.41;5117047;28;1876;-54
2021/08/25 00:55:12;;;;;;;;;;;;;;;20.76;63.00;102404.88;5116738;28;940;-54
2021/08/25 00:57:37;;;;;;;;;;;;;;;20.76;62.90;102410.28;5116233;28;916;-52
2021/08/25 01:00:02;;;;;;;;;;;;;;;20.75;63.24;102402.28;5116609;28;1961;-53
2021/08/25 01:02:28;;;;;;;;;;;;;;;20.75;62.94;102405.84;5098041;28;1099;-53
2021/08/25 01:04:53;;;;;;;;;;;;;;;20.73;63.03;102406.97;5116639;28;1745;-54
2021/08/25 01:07:18;;;;;;;;;;;;;;;20.73;63.11;102404.25;5131923;27;1862;-55
2021/08/25 01:09:43;;;;;;;;;;;;;;;20.73;62.97;102398.84;5115710;28;806;-52
2021/08/25 01:12:08;;;;;;;;;;;;;;;20.71;63.22;102403.50;5115696;28;1064;-55
2021/08/25 01:14:33;;;;;;;;;;;;;;;20.71;62.77;102403.50;5116366;28;1787;-53
2021/08/25 01:16:58;;;;;;;;;;;;;;;20.70;62.67;102404.50;5115885;28;897;-53
2021/08/25 01:19:23;;;;;;;;;;;;;;;20.70;63.14;102393.66;5115957;28;1893;-53
2021/08/25 01:21:48;;;;;;;;;;;;;;;20.69;62.60;102400.94;5135457;27;1733;-49
2021/08/25 01:24:15;;;;;;;;;;;;;;;20.68;62.67;102393.78;5136155;27;856;-52
2021/08/25 01:26:40;;;;;;;;;;;;;;;20.66;63.17;102397.59;5136366;27;1016;-51
2021/08/25 01:29:05;;;;;;;;;;;;;;;20.65;62.46;102394.03;5136551;27;811;-51
2021/08/25 01:31:30;;;;;;;;;;;;;;;20.65;62.82;102390.47;5136551;27;841;-51
2021/08/25 01:33:55;;;;;;;;;;;;;;;20.64;62.67;102397.72;5135659;27;1786;-54
2021/08/25 01:36:20;;;;;;;;;;;;;;;20.64;63.00;102394.16;5136286;27;1779;-51
2021/08/25 01:38:45;;;;;;;;;;;;;;;20.63;62.63;102389.72;5135730;27;1910;-54
2021/08/25 01:41:11;;;;;;;;;;;;;;;20.62;62.94;102388.88;5136484;27;984;-51
2021/08/25 01:43:36;;;;;;;;;;;;;;;20.62;62.45;102388.00;5117772;27;1796;-52
2021/08/25 01:46:01;;;;;;;;;;;;;;;20.61;63.08;102386.28;5136489;27;989;-52
2021/08/25 01:48:26;;;;;;;;;;;;;;;20.60;62.72;102382.72;5132316;28;1569;-53
2021/08/25 01:50:51;;;;;;;;;;;;;;;20.59;62.23;102378.31;5115042;28;901;-52
2021/08/25 01:53:16;;;;;;;;;;;;;;;20.59;62.92;102375.59;5115235;28;1004;-50
2021/08/25 01:55:41;;;;;;;;;;;;;;;20.59;62.38;102377.44;5115913;28;1552;-49
2021/08/25 01:58:07;;;;;;;;;;;;;;;20.58;62.55;102375.72;5115462;28;1928;-54
2021/08/25 02:00:32;;;;;;;;;;;;;;;20.57;62.42;102374.00;5115440;28;872;-51
2021/08/25 02:02:57;;;;;;;;;;;;;;;20.57;62.87;102368.59;5115831;28;1746;-48
2021/08/25 02:05:22;;;;;;;;;;;;;;;20.55;62.83;102368.72;5115848;28;1631;-52
2021/08/25 02:07:47;;;;;;;;;;;;;;;20.55;62.44;102365.13;5115465;28;1207;-50
2021/08/25 02:10:12;;;;;;;;;;;;;;;20.53;62.31;102356.28;5115754;28;1063;-49
2021/08/25 02:12:37;;;;;;;;;;;;;;;20.54;62.33;102360.72;5130310;28;1760;-50
2021/08/25 02:15:02;;;;;;;;;;;;;;;20.52;62.21;102357.25;5117347;28;1740;-50
2021/08/25 02:17:27;;;;;;;;;;;;;;;20.52;62.38;102349.13;5115168;28;933;-49
2021/08/25 02:19:52;;;;;;;;;;;;;;;20.51;62.34;102347.41;5115423;28;1957;-49
2021/08/25 02:22:17;;;;;;;;;;;;;;;20.50;62.44;102346.56;5115524;28;857;-50
2021/08/25 02:24:42;;;;;;;;;;;;;;;20.50;62.38;102351.09;5115118;28;1631;-49
2021/08/25 02:27:07;;;;;;;;;;;;;;;20.49;62.34;102344.84;5115562;28;1779;-48
2021/08/25 02:29:33;;;;;;;;;;;;;;;20.48;62.70;102345.81;5114776;28;1053;-48
2021/08/25 02:31:58;;;;;;;;;;;;;;;20.48;62.57;102353.09;5115009;28;1071;-50
2021/08/25 02:34:23;;;;;;;;;;;;;;;20.47;62.73;102354.06;5115557;28;1577;-48
2021/08/25 02:36:48;;;;;;;;;;;;;;;20.47;62.52;102356.78;5115340;28;896;-49
2021/08/25 02:39:13;;;;;;;;;;;;;;;20.45;62.61;102355.06;5115279;28;1981;-49
2021/08/25 02:41:38;;;;;;;;;;;;;;;20.43;62.19;102354.31;5116263;28;2027;-47
2021/08/25 02:44:03;;;;;;;;;;;;;;;20.43;61.72;102343.47;5114771;28;798;-48
2021/08/25 02:46:28;;;;;;;;;;;;;;;20.43;62.42;102348.91;5115391;28;818;-48
2021/08/25 02:48:53;;;;;;;;;;;;;;;20.42;62.02;102344.47;5114792;28;1064;-53
2021/08/25 02:51:18;;;;;;;;;;;;;;;20.41;62.10;102341.91;5114908;28;825;-53
2021/08/25 02:53:44;;;;;;;;;;;;;;;20.41;62.11;102337.38;5116281;28;1925;-53
2021/08/25 02:56:09;;;;;;;;;;;;;;;20.40;62.41;102330.22;5135840;28;960;-52
2021/08/25 02:58:34;;;;;;;;;;;;;;;20.39;62.15;102333.91;5135675;27;1889;-55
2021/08/25 03:00:59;;;;;;;;;;;;;;;20.39;61.86;102328.50;5135859;27;1632;-54
2021/08/25 03:03:24;;;;;;;;;;;;;;;20.38;62.54;102320.50;5138058;27;791;-51
2021/08/25 03:05:49;;;;;;;;;;;;;;;20.37;62.36;102314.22;5139322;27;977;-53
2021/08/25 03:08:14;;;;;;;;;;;;;;;20.36;61.68;102312.50;5135681;27;1872;-52
2021/08/25 03:10:39;;;;;;;;;;;;;;;20.36;62.25;102322.44;5118593;28;1606;-53
2021/08/25 03:13:04;;;;;;;;;;;;;;;20.34;62.48;102314.44;5118593;28;1000;-49
2021/08/25 03:15:29;;;;;;;;;;;;;;;20.34;62.40;102316.28;5118254;28;940;-52
2021/08/25 03:17:54;;;;;;;;;;;;;;;20.34;62.48;102313.59;5119555;27;1906;-51
2021/08/25 03:20:19;;;;;;;;;;;;;;;20.34;62.01;102310.88;5131077;27;1955;-52
2021/08/25 03:22:45;;;;;;;;;;;;;;;20.32;62.20;102308.28;5138930;27;1009;-51
2021/08/25 03:25:10;;;;;;;;;;;;;;;20.32;61.63;102304.72;5138633;27;956;-50
2021/08/25 03:27:35;;;;;;;;;;;;;;;20.31;62.30;102309.28;5138667;27;921;-51
2021/08/25 03:30:00;;;;;;;;;;;;;;;20.30;62.46;102304.84;5136890;27;1780;-55
2021/08/25 03:32:25;;;;;;;;;;;;;;;20.29;61.59;102297.72;5138499;27;1008;-54
2021/08/25 03:34:50;;;;;;;;;;;;;;;20.29;61.97;102299.56;5138567;27;845;-54
2021/08/25 03:37:15;;;;;;;;;;;;;;;20.29;61.42;102304.97;5138237;27;1351;-55
2021/08/25 03:39:40;;;;;;;;;;;;;;;20.28;61.54;102304.13;5138692;27;1921;-55
2021/08/25 03:42:08;;;;;;;;;;;;;;;20.27;61.57;102296.97;5137583;27;1882;-51
2021/08/25 03:44:33;;;;;;;;;;;;;;;20.26;61.54;102289.84;5138092;27;790;-52
2021/08/25 03:46:58;;;;;;;;;;;;;;;20.25;61.58;102293.53;5138383;27;972;-53
2021/08/25 03:49:23;;;;;;;;;;;;;;;20.24;62.14;102286.44;5138229;27;988;-54
2021/08/25 03:51:48;;;;;;;;;;;;;;;20.23;61.57;102287.41;5138092;27;1007;-55
2021/08/25 03:54:13;;;;;;;;;;;;;;;20.23;62.11;102287.41;5138076;27;917;-52
2021/08/25 03:56:38;;;;;;;;;;;;;;;20.22;61.40;102280.28;5130972;27;1741;-53
2021/08/25 03:59:03;;;;;;;;;;;;;;;20.21;61.50;102281.25;5117610;28;1890;-51
2021/08/25 04:01:28;;;;;;;;;;;;;;;20.20;61.36;102271.41;5117512;28;852;-53
2021/08/25 04:03:54;;;;;;;;;;;;;;;20.20;61.57;102273.25;5117269;28;1653;-52
2021/08/25 04:06:19;;;;;;;;;;;;;;;20.20;61.57;102265.16;5117325;28;853;-54
2021/08/25 04:08:44;;;;;;;;;;;;;;;20.19;62.36;102263.41;5117253;28;833;-52
2021/08/25 04:11:09;;;;;;;;;;;;;;;20.18;61.52;102264.41;5117157;28;1768;-53
2021/08/25 04:13:34;;;;;;;;;;;;;;;20.17;61.22;102265.41;5117338;28;928;-53
2021/08/25 04:15:59;;;;;;;;;;;;;;;20.16;61.54;102259.13;5117080;28;810;-52
2021/08/25 04:18:25;;;;;;;;;;;;;;;20.15;61.22;102260.09;5116979;28;1913;-52
2021/08/25 04:20:50;;;;;;;;;;;;;;;20.16;61.49;102260.97;5116912;28;930;-53
2021/08/25 04:23:15;;;;;;;;;;;;;;;20.15;61.91;102264.66;5117388;28;1624;-54
2021/08/25 04:25:43;;;;;;;;;;;;;;;20.13;61.42;102259.38;5128417;27;1783;-52
2021/08/25 04:28:08;;;;;;;;;;;;;;;20.13;61.84;102262.06;5136932;27;1753;-50
2021/08/25 04:30:33;;;;;;;;;;;;;;;20.13;61.95;102262.06;5136135;27;1253;-51
2021/08/25 04:32:58;;;;;;;;;;;;;;;20.11;61.36;102258.63;5137125;27;1631;-48
2021/08/25 04:35:24;;;;;;;;;;;;;;;20.11;61.44;102255.91;5137578;27;937;-49
2021/08/25 04:37:49;;;;;;;;;;;;;;;20.10;61.17;102256.91;5137184;27;1147;-50
2021/08/25 04:40:14;;;;;;;;;;;;;;;20.10;61.87;102268.59;5121749;27;1906;-50
2021/08/25 04:42:39;;;;;;;;;;;;;;;20.09;61.19;102271.44;5116828;28;1019;-50
2021/08/25 04:45:04;;;;;;;;;;;;;;;20.08;61.20;102261.59;5116809;28;862;-48
2021/08/25 04:47:29;;;;;;;;;;;;;;;20.07;61.27;102263.44;5116626;28;1012;-52
2021/08/25 04:49:54;;;;;;;;;;;;;;;20.08;61.35;102267.00;5116456;28;989;-53
2021/08/25 04:52:19;;;;;;;;;;;;;;;20.05;60.81;102272.69;5116165;28;893;-51
2021/08/25 04:54:44;;;;;;;;;;;;;;;20.07;62.10;102273.41;5134065;27;1963;-53
2021/08/25 04:57:09;;;;;;;;;;;;;;;20.04;60.84;102265.56;5129354;27;1607;-53
2021/08/25 04:59:34;;;;;;;;;;;;;;;20.04;60.98;102265.56;5126320;27;1918;-53
2021/08/25 05:01:59;;;;;;;;;;;;;;;20.04;60.98;102269.13;5117491;27;1847;-54
2021/08/25 05:04:24;;;;;;;;;;;;;;;20.09;61.80;102264.16;5118683;27;1480;-52
2021/08/25 05:06:50;;;;;;;;;;;;;;;20.13;62.19;102264.78;5127186;27;1736;-53
2021/08/25 05:09:15;;;;;;;;;;;;;;;20.15;61.76;102260.09;5122878;27;1722;-52
2021/08/25 05:11:40;;;;;;;;;;;;;;;20.16;62.13;102258.25;5130246;27;1662;-50
2021/08/25 05:14:05;;;;;;;;;;;;;;;20.18;62.29;102257.16;5118349;27;1077;-56
2021/08/25 05:16:30;;;;;;;;;;;;;;;20.18;62.42;102251.72;5127242;27;1340;-55
2021/08/25 05:18:55;;;;;;;;;;;;;;;20.19;62.67;102250.75;5124796;27;1898;-53
2021/08/25 05:21:20;;;;;;;;;;;;;;;20.20;62.17;102252.47;5104501;28;1679;-51
2021/08/25 05:23:45;;;;;;;;;;;;;;;20.16;62.29;102255.53;5126056;27;1534;-50
2021/08/25 05:26:10;;;;;;;;;;;;;;;20.17;62.87;102251.84;5123585;27;1579;-51
2021/08/25 05:28:35;;;;;;;;;;;;;;;20.17;62.61;102252.72;5105893;27;1624;-52
2021/08/25 05:31:00;;;;;;;;;;;;;;;20.18;62.56;102243.63;5121265;27;1679;-52
2021/08/25 05:33:25;;;;;;;;;;;;;;;20.19;61.86;102248.03;5128118;27;1672;-53
2021/08/25 05:35:50;;;;;;;;;;;;;;;20.19;62.13;102241.75;5128306;27;1753;-52
2021/08/25 05:38:15;;;;;;;;;;;;;;;20.21;61.86;102242.50;5126123;27;1983;-49
2021/08/25 05:40:41;;;;;;;;;;;;;;;20.22;61.65;102238.81;5121319;27;1762;-51
2021/08/25 05:43:06;;;;;;;;;;;;;;;20.22;61.14;102247.78;5114032;27;1807;-53
2021/08/25 05:45:31;;;;;;;;;;;;;;;20.23;61.48;102249.50;5124831;28;1514;-50
2021/08/25 05:47:57;;;;;;;;;;;;;;;20.24;61.04;102262.06;5125631;27;1641;-49
2021/08/25 05:50:22;;;;;;;;;;;;;;;20.26;61.26;102261.91;5107028;28;1738;-53
2021/08/25 05:52:47;;;;;;;;;;;;;;;20.25;60.71;102266.47;5126239;28;1539;-50
2021/08/25 05:55:12;;;;;;;;;;;;;;;20.26;61.41;102256.50;5124884;28;1817;-51
2021/08/25 05:57:45;;;;;;;;;;;;;;;20.25;61.13;102261.03;5111475;28;1850;-53
2021/08/25 06:00:10;;;;;;;;;;;;;;;20.28;61.34;102259.94;5119588;28;1945;-49
2021/08/25 06:02:35;;;;;;;;;;;;;;;20.28;61.69;102255.38;5128681;28;1973;-51
2021/08/25 06:05:00;;;;;;;;;;;;;;;20.30;61.85;102261.53;5124474;28;1652;-52
2021/08/25 06:07:25;;;;;;;;;;;;;;;20.32;62.34;102267.69;5115691;28;1004;-51
2021/08/25 06:09:50;;;;;;;;;;;;;;;20.36;62.36;102268.28;5115197;28;1752;-53
2021/08/25 06:12:15;;;;;;;;;;;;;;;20.38;61.77;102271.75;5115701;28;1728;-50
2021/08/25 06:14:40;;;;;;;;;;;;;;;20.40;62.69;102267.94;5115359;28;838;-52
2021/08/25 06:17:06;;;;;;;;;;;;;;;20.41;62.43;102269.66;5115196;28;893;-54
2021/08/25 06:19:31;;;;;;;;;;;;;;;20.42;62.51;102263.22;5119205;28;1956;-51
2021/08/25 06:21:56;;;;;;;;;;;;;;;20.43;62.38;102259.53;5134518;28;1762;-49
2021/08/25 06:24:21;;;;;;;;;;;;;;;20.44;62.11;102265.81;5115313;28;919;-48
2021/08/25 06:26:46;;;;;;;;;;;;;;;20.44;61.77;102261.25;5114845;28;1056;-50
2021/08/25 06:29:11;;;;;;;;;;;;;;;20.44;62.07;102263.09;5114815;28;937;-51
2021/08/25 06:31:36;;;;;;;;;;;;;;;20.44;62.00;102261.25;5115279;28;1520;-50
2021/08/25 06:34:01;;;;;;;;;;;;;;;20.48;62.57;102263.72;5115189;28;1795;-49
2021/08/25 06:36:26;;;;;;;;;;;;;;;20.49;61.78;102265.44;5135420;28;1787;-51
2021/08/25 06:38:51;;;;;;;;;;;;;;;20.51;62.33;102266.16;5138712;27;1983;-53
2021/08/25 06:41:16;;;;;;;;;;;;;;;20.51;61.65;102269.72;5139467;27;1796;-52
2021/08/25 06:43:42;;;;;;;;;;;;;;;20.52;62.72;102268.75;5139068;27;841;-50
2021/08/25 06:46:07;;;;;;;;;;;;;;;20.54;62.11;102272.19;5127967;27;1942;-49
2021/08/25 06:48:32;;;;;;;;;;;;;;;20.55;61.72;102264.94;5122436;27;1474;-49
2021/08/25 06:50:57;;;;;;;;;;;;;;;20.56;61.82;102263.94;5123978;27;1545;-51
2021/08/25 06:53:22;;;;;;;;;;;;;;;20.59;61.89;102269.09;5121547;27;1714;-52
2021/08/25 06:55:47;;;;;;;;;;;;;;;20.63;61.65;102262.41;5124261;27;1639;-51
2021/08/25 06:58:12;;;;;;;;;;;;;;;20.66;62.55;102270.28;5128737;27;1913;-50
2021/08/25 07:00:37;;;;;;;;;;;;;;;20.68;62.35;102269.16;5128506;27;1891;-53
2021/08/25 07:03:03;;;;;;;;;;;;;;;20.72;61.53;102264.34;5132241;27;1934;-51
2021/08/25 07:05:28;;;;;;;;;;;;;;;20.76;61.83;102265.81;5123952;27;1857;-50
2021/08/25 07:07:53;;;;;;;;;;;;;;;20.74;61.94;102260.53;5129330;27;1651;-46
2021/08/25 07:10:18;;;;;;;;;;;;;;;20.78;61.59;102263.84;5080766;22;1721;-52
2021/08/25 07:12:43;;;;;;;;;;;;;;;20.83;62.08;102255.28;5044113;28;1780;-49
2021/08/25 07:15:15;;;;;;;;;;;;;;;20.86;61.98;102265.88;5056160;28;1593;-50
2021/08/25 07:17:40;;;;;;;;;;;;;;;20.88;61.32;102261.19;5056733;28;1427;-53
2021/08/25 07:20:05;;;;;;;;;;;;;;;20.90;61.46;102256.50;5056126;28;1920;-51
2021/08/25 07:22:30;;;;;;;;;;;;;;;20.84;61.62;102255.16;5056678;28;1337;-54
2021/08/25 07:24:55;;;;;;;;;;;;;;;20.91;62.15;102256.38;5056962;28;1268;-52
2021/08/25 07:27:20;;;;;;;;;;;;;;;20.94;62.43;102258.81;5056855;28;843;-53
2021/08/25 07:29:46;;;;;;;;;;;;;;;20.92;61.60;102260.78;5056648;28;997;-50
2021/08/25 07:32:11;;;;;;;;;;;;;;;20.96;62.10;102251.38;5060357;28;1698;-52
2021/08/25 07:34:36;;;;;;;;;;;;;;;20.95;61.44;102251.53;5077368;28;937;-53
2021/08/25 07:37:02;;;;;;;;;;;;;;;20.99;61.87;102243.00;5067563;28;1327;-52
2021/08/25 07:39:27;;;;;;;;;;;;;;;21.04;61.44;102248.03;5058941;28;1957;-53
2021/08/25 07:41:54;;;;;;;;;;;;;;;21.04;61.78;102243.47;5056870;28;1079;-50
2021/08/25 07:44:20;;;;;;;;;;;;;;;21.04;61.51;102242.59;5056513;28;822;-51
2021/08/25 07:46:45;;;;;;;;;;;;;;;21.01;61.15;102246.44;5056542;28;1530;-49
2021/08/25 07:49:11;;;;;;;;;;;;;;;21.01;61.34;102245.56;5056172;28;780;-56
2021/08/25 07:51:36;;;;;;;;;;;;;;;21.04;61.28;102248.88;5065373;28;1622;-51
2021/08/25 07:54:01;;;;;;;;;;;;;;;21.08;61.57;102250.34;5076569;28;831;-52
2021/08/25 07:56:26;;;;;;;;;;;;;;;21.10;61.20;102253.78;5076455;28;819;-55
2021/08/25 07:58:51;;;;;;;;;;;;;;;21.04;60.85;102248.03;5070761;28;1906;-55
2021/08/25 08:01:16;;;;;;;;;;;;;;;21.04;61.00;102248.88;5056353;28;1340;-53
2021/08/25 08:03:41;;;;;;;;;;;;;;;21.06;61.20;102248.75;5061082;28;1880;-53
2021/08/25 08:06:06;;;;;;;;;;;;;;;21.09;60.98;102245.78;5056360;28;1796;-52
2021/08/25 08:08:31;;;;;;;;;;;;;;;21.12;60.38;102246.38;5054840;28;1779;-52
2021/08/25 08:10:56;;;;;;;;;;;;;;;21.10;60.61;102240.22;5056773;28;1029;-53
2021/08/25 08:13:21;;;;;;;;;;;;;;;21.12;60.11;102235.53;5056896;28;935;-52
2021/08/25 08:15:46;;;;;;;;;;;;;;;21.16;60.39;102244.22;5062065;28;1808;-52
2021/08/25 08:18:19;;;;;;;;;;;;;;;21.13;59.66;102228.25;5063274;28;1619;-52
2021/08/25 08:20:44;;;;;;;;;;;;;;;21.17;60.55;102234.25;5056679;28;901;-54
2021/08/25 08:23:09;;;;;;;;;;;;;;;21.17;59.96;102235.09;5056428;28;1001;-52
2021/08/25 08:25:34;;;;;;;;;;;;;;;21.15;60.10;102235.25;5055963;28;1739;-50
2021/08/25 08:27:59;;;;;;;;;;;;;;;21.18;60.43;102236.81;5060710;28;1841;-49
2021/08/25 08:30:24;;;;;;;;;;;;;;;21.17;60.45;102228.81;5076578;28;855;-50
2021/08/25 08:32:50;;;;;;;;;;;;;;;21.19;59.88;102226.84;5074493;28;1005;-50
2021/08/25 08:35:15;;;;;;;;;;;;;;;21.17;60.08;102226.97;5074276;28;1833;-53
2021/08/25 08:37:40;;;;;;;;;;;;;;;21.14;60.12;102228.09;5075910;28;1013;-52
2021/08/25 08:40:05;;;;;;;;;;;;;;;21.14;60.04;102228.09;5072109;28;1890;-55
2021/08/25 08:42:30;;;;;;;;;;;;;;;21.12;60.50;102230.09;5055121;28;1969;-53
2021/08/25 08:44:58;;;;;;;;;;;;;;;21.14;60.76;102217.25;5057782;28;1870;-54
2021/08/25 08:47:23;;;;;;;;;;;;;;;21.18;60.66;102217.00;5057279;28;1733;-50
2021/08/25 08:49:48;;;;;;;;;;;;;;;21.22;60.83;102215.75;5055414;28;1558;-54
2021/08/25 08:52:13;;;;;;;;;;;;;;;21.24;60.66;102219.19;5055195;28;1860;-53
2021/08/25 08:54:38;;;;;;;;;;;;;;;21.20;60.72;102212.31;5056317;28;1624;-51
2021/08/25 08:57:03;;;;;;;;;;;;;;;21.20;60.47;102215.03;5052210;28;1787;-52
2021/08/25 08:59:28;;;;;;;;;;;;;;;21.14;61.08;102200.13;5043470;28;1906;-49
2021/08/25 09:01:53;;;;;;;;;;;;;;;21.14;60.77;102201.00;5056007;28;1900;-51
2021/08/25 09:04:18;;;;;;;;;;;;;;;21.16;60.99;102203.56;5058589;28;1873;-50
2021/08/25 09:06:44;;;;;;;;;;;;;;;21.17;60.48;102185.44;5056687;28;1801;-51
2021/08/25 09:09:09;;;;;;;;;;;;;;;21.20;60.89;102193.34;5067315;28;1482;-51
2021/08/25 09:11:34;;;;;;;;;;;;;;;21.22;60.47;102192.22;5073084;28;1893;-51
2021/08/25 09:13:59;;;;;;;;;;;;;;;21.25;61.10;102185.66;5058092;28;1650;-52
2021/08/25 09:16:24;;;;;;;;;;;;;;;21.28;60.93;102182.69;5074755;28;1935;-49
2021/08/25 09:18:49;;;;;;;;;;;;;;;21.29;61.11;102181.69;5066413;28;1887;-51
2021/08/25 09:21:14;;;;;;;;;;;;;;;21.27;61.02;102191.81;5055682;28;1642;-49
2021/08/25 09:23:39;;;;;;;;;;;;;;;21.28;61.12;102185.41;5054523;28;1827;-52
2021/08/25 09:26:04;;;;;;;;;;;;;;;21.28;61.12;102188.97;5058409;28;1472;-53
2021/08/25 09:28:30;;;;;;;;;;;;;;;21.30;60.73;102186.13;5059539;28;1711;-51
2021/08/25 09:30:55;;;;;;;;;;;;;;;21.33;60.93;102191.25;5054495;28;1700;-54
2021/08/25 09:33:20;;;;;;;;;;;;;;;21.33;60.69;102183.13;5055319;28;1643;-51
2021/08/25 09:35:45;;;;;;;;;;;;;;;21.31;59.88;102188.72;5059298;28;1550;-48
2021/08/25 09:38:10;;;;;;;;;;;;;;;21.35;59.95;102197.41;5071203;28;1502;-51
2021/08/25 09:40:36;;;;;;;;;;;;;;;21.31;60.20;102196.84;5064195;28;1960;-47
2021/08/25 09:43:01;;;;;;;;;;;;;;;21.30;60.17;102205.97;5056358;28;1790;-52
2021/08/25 09:45:26;;;;;;;;;;;;;;;21.27;60.52;102200.81;5069738;28;1595;-51
2021/08/25 09:47:51;;;;;;;;;;;;;;;21.33;60.18;102199.38;5056896;28;1583;-49
2021/08/25 09:50:17;;;;;;;;;;;;;;;21.35;60.04;102186.56;5060009;28;1720;-48
2021/08/25 09:52:42;;;;;;;;;;;;;;;21.35;60.50;102200.13;5050969;28;1834;-53
2021/08/25 09:55:07;;;;;;;;;;;;;;;21.38;60.28;102197.13;5044383;28;1763;-50
2021/08/25 09:57:32;;;;;;;;;;;;;;;21.34;59.94;102187.56;5054119;28;1647;-49
2021/08/25 09:59:57;;;;;;;;;;;;;;;21.33;59.72;102199.38;5053308;28;1902;-50
2021/08/25 10:02:22;;;;;;;;;;;;;;;21.35;59.70;102186.56;5054754;28;1545;-52
2021/08/25 10:04:48;;;;;;;;;;;;;;;21.38;59.81;102183.56;5063608;28;1937;-48
2021/08/25 10:07:13;;;;;;;;;;;;;;;21.39;59.78;102185.28;5062155;28;1489;-52
2021/08/25 10:09:38;;;;;;;;;;;;;;;21.35;60.09;102186.56;5067653;28;1471;-52
2021/08/25 10:12:03;;;;;;;;;;;;;;;21.35;59.86;102176.56;5050755;28;2044;-53
2021/08/25 10:14:28;;;;;;;;;;;;;;;21.32;60.42;102178.69;5053133;28;1534;-50
2021/08/25 10:16:53;;;;;;;;;;;;;;;21.33;60.11;102177.69;5055974;28;1817;-50
2021/08/25 10:19:18;;;;;;;;;;;;;;;21.31;59.98;102168.88;5063239;28;1973;-50
2021/08/25 10:21:43;;;;;;;;;;;;;;;21.33;59.52;102156.84;5052881;28;1493;-53
2021/08/25 10:24:08;;;;;;;;;;;;;;;21.27;59.84;102146.59;5058287;28;1768;-54
2021/08/25 10:26:33;;;;;;;;;;;;;;;21.27;60.09;102140.31;5053978;28;2196;-52
2021/08/25 10:28:59;;;;;;;;;;;;;;;21.27;60.06;102143.88;5053686;28;1877;-50
2021/08/25 10:31:24;;;;;;;;;;;;;;;21.30;60.37;102140.03;5049609;28;2439;-48
2021/08/25 10:33:49;;;;;;;;;;;;;;;21.33;60.04;102131.59;5051952;28;1473;-54
2021/08/25 10:36:14;;;;;;;;;;;;;;;21.32;60.14;102121.75;5050785;28;1732;-51
2021/08/25 10:38:39;;;;;;;;;;;;;;;21.31;60.47;102120.91;5047013;28;1894;-50
2021/08/25 10:41:04;;;;;;;;;;;;;;;21.33;59.79;102118.91;5053093;28;1688;-49
2021/08/25 10:43:29;;;;;;;;;;;;;;;21.31;60.10;102110.06;5058232;28;891;-50
2021/08/25 10:45:56;;;;;;;;;;;;;;;21.33;60.31;102115.31;5070818;28;1874;-52
2021/08/25 10:48:21;;;;;;;;;;;;;;;21.34;59.91;102108.91;5052262;28;1582;-53
2021/08/25 10:50:46;;;;;;;;;;;;;;;21.30;59.91;102107.50;5039061;28;1573;-51
2021/08/25 10:53:11;;;;;;;;;;;;;;;21.29;60.11;102111.19;5052982;28;1640;-52
2021/08/25 10:55:36;;;;;;;;;;;;;;;21.28;60.23;102110.34;5057200;28;1857;-52
2021/08/25 10:58:02;;;;;;;;;;;;;;;21.28;60.06;102104.06;5059278;28;1724;-51
2021/08/25 11:00:27;;;;;;;;;;;;;;;21.29;60.35;102105.78;5057297;28;1886;-49
2021/08/25 11:02:52;;;;;;;;;;;;;;;21.27;59.92;102110.47;5054272;28;1641;-53
2021/08/25 11:05:18;;;;;;;;;;;;;;;21.24;60.53;102108.91;5057459;28;1903;-51
2021/08/25 11:07:43;;;;;;;;;;;;;;;21.27;60.16;102105.06;5058253;28;2079;-52
2021/08/25 11:10:09;;;;;;;;;;;;;;;21.27;60.12;102103.19;5069053;28;1822;-52
2021/08/25 11:12:34;;;;;;;;;;;;;;;21.23;60.59;102099.03;5077689;28;1852;-51
2021/08/25 11:14:59;;;;;;;;;;;;;;;21.22;60.75;102096.47;5065333;28;1875;-50
2021/08/25 11:17:24;;;;;;;;;;;;;;;21.22;60.73;102100.03;5056441;28;859;-52
2021/08/25 11:19:49;;;;;;;;;;;;;;;21.24;60.88;102087.19;5057695;28;1922;-52
2021/08/25 11:22:14;;;;;;;;;;;;;;;21.24;60.78;102076.34;5058748;28;1838;-50
2021/08/25 11:24:39;;;;;;;;;;;;;;;21.27;60.63;102077.94;5055111;28;1654;-50
2021/08/25 11:27:04;;;;;;;;;;;;;;;21.29;60.26;102084.94;5057392;28;958;-49
2021/08/25 11:29:29;;;;;;;;;;;;;;;21.26;60.80;102087.06;5055992;28;1852;-51
2021/08/25 11:31:54;;;;;;;;;;;;;;;21.24;61.22;102083.63;5050644;28;1519;-53
2021/08/25 11:34:20;;;;;;;;;;;;;;;21.22;60.97;102072.06;5056919;28;1877;-54
2021/08/25 11:36:45;;;;;;;;;;;;;;;21.23;61.00;102069.22;5057572;28;782;-54
2021/08/25 11:39:10;;;;;;;;;;;;;;;21.26;61.36;102074.38;5056491;28;1973;-53
2021/08/25 11:41:35;;;;;;;;;;;;;;;21.24;60.35;102084.50;5051837;28;1599;-51
2021/08/25 11:44:01;;;;;;;;;;;;;;;21.24;60.79;102072.78;5055126;28;1889;-54
2021/08/25 11:46:26;;;;;;;;;;;;;;;21.23;60.38;102068.34;5056835;28;1512;-52
2021/08/25 11:48:51;;;;;;;;;;;;;;;21.28;60.90;102060.69;5057351;28;1009;-50
2021/08/25 11:51:16;;;;;;;;;;;;;;;21.24;59.83;102064.66;5075087;28;1803;-52
2021/08/25 11:53:42;;;;;;;;;;;;;;;21.28;59.97;102063.38;5070422;28;1623;-50
2021/08/25 11:56:07;;;;;;;;;;;;;;;21.32;60.24;102060.22;5057470;28;1473;-53
2021/08/25 11:58:37;;;;;;;;;;;;;;;21.33;60.03;102047.53;5058113;28;1961;-54
2021/08/25 12:01:03;;;;;;;;;;;;;;;21.30;60.19;102048.69;5059915;28;1747;-52
2021/08/25 12:03:28;;;;;;;;;;;;;;;21.33;60.57;102042.09;5060940;28;1503;-54
2021/08/25 12:05:53;;;;;;;;;;;;;;;21.33;60.64;102044.81;5053649;28;1815;-52
2021/08/25 12:08:18;;;;;;;;;;;;;;;21.32;59.33;102037.69;5064676;28;1520;-51
2021/08/25 12:10:43;;;;;;;;;;;;;;;21.33;60.31;102034.81;5064832;28;1427;-52
2021/08/25 12:13:08;;;;;;;;;;;;;;;21.34;59.79;102030.25;5065427;28;1532;-52
2021/08/25 12:15:34;;;;;;;;;;;;;;;21.41;59.85;102034.13;5073947;28;1400;-54
2021/08/25 12:17:59;;;;;;;;;;;;;;;21.43;59.36;102032.16;5061438;28;1418;-53
2021/08/25 12:20:24;;;;;;;;;;;;;;;21.48;59.62;102027.16;5067701;28;1973;-54
2021/08/25 12:22:49;;;;;;;;;;;;;;;21.44;59.09;102023.00;5069279;28;1653;-51
2021/08/25 12:25:14;;;;;;;;;;;;;;;21.42;59.57;102020.44;5069855;28;1823;-53
2021/08/25 12:27:39;;;;;;;;;;;;;;;21.41;59.57;102021.44;5068215;28;1592;-51
2021/08/25 12:30:04;;;;;;;;;;;;;;;21.45;60.32;102024.72;5056553;28;1654;-53
2021/08/25 12:32:29;;;;;;;;;;;;;;;21.50;59.00;102022.44;5055781;28;1921;-53
2021/08/25 12:34:54;;;;;;;;;;;;;;;21.49;59.42;102020.75;5056387;28;1009;-52
2021/08/25 12:37:19;;;;;;;;;;;;;;;21.49;59.38;102015.31;5073352;28;1908;-52